Time;durP1;ratioP1;P1;durP2;ratioP2;P2;SDS_P1;SDS_P2;PMS_P1;PMS_P2;Temp;Humidity;BMP_temperature;BMP_pressure;BME280_temperature;BME280_humidity;BME280_pressure;Samples;Min_cycle;Max_cycle;Signal;HPM_P1;HPM_P2
2023/03/11 00:00:43;;;;;;;18.30;14.10;;;2.00;99.90;;;;;;5054516;28;20192;-68
2023/03/11 00:03:11;;;;;;;20.67;14.77;;;2.00;99.90;;;;;;5054540;28;20199;-68
2023/03/11 00:05:39;;;;;;;21.10;15.03;;;1.90;99.90;;;;;;5054468;28;20211;-71
2023/03/11 00:08:06;;;;;;;19.43;14.80;;;1.80;99.90;;;;;;5052994;28;20211;-67
2023/03/11 00:10:43;;;;;;;20.73;14.40;;;1.70;99.90;;;;;;5055093;28;20204;-67
2023/03/11 00:13:11;;;;;;;19.33;15.00;;;1.60;99.90;;;;;;5054323;28;20210;-67
2023/03/11 00:15:38;;;;;;;19.10;14.37;;;1.60;99.90;;;;;;5054492;28;20197;-68
2023/03/11 00:18:04;;;;;;;16.97;13.43;;;1.40;99.90;;;;;;5052905;28;20200;-68
2023/03/11 00:20:33;;;;;;;19.50;12.67;;;1.40;99.90;;;;;;5054777;28;20575;-68
2023/03/11 00:22:59;;;;;;;17.33;12.00;;;1.30;99.90;;;;;;5058698;28;20260;-71
2023/03/11 00:25:27;;;;;;;17.87;13.93;;;1.20;99.90;;;;;;5058389;28;20232;-68
2023/03/11 00:27:53;;;;;;;17.37;13.37;;;1.20;99.90;;;;;;5055793;28;20762;-70
2023/03/11 00:30:19;;;;;;;26.07;18.67;;;1.20;99.90;;;;;;5058748;28;20226;-69
2023/03/11 00:32:47;;;;;;;15.87;12.23;;;1.10;99.90;;;;;;5058904;28;20970;-68
2023/03/11 00:35:16;;;;;;;17.20;12.67;;;1.10;99.90;;;;;;5059573;28;20207;-71
2023/03/11 00:37:44;;;;;;;15.97;12.57;;;1.10;99.90;;;;;;5056340;28;20213;-68
2023/03/11 00:40:17;;;;;;;19.93;14.80;;;1.10;99.90;;;;;;5059512;28;20285;-68
2023/03/11 00:42:43;;;;;;;18.10;14.50;;;1.00;99.90;;;;;;5058640;28;20904;-66
2023/03/11 00:45:09;;;;;;;19.67;15.57;;;1.00;99.90;;;;;;5059240;28;20595;-67
2023/03/11 00:47:35;;;;;;;19.63;14.47;;;1.00;99.90;;;;;;5059315;28;20207;-75
2023/03/11 00:50:00;;;;;;;18.20;15.27;;;1.00;99.90;;;;;;5056477;28;20198;-66
2023/03/11 00:52:27;;;;;;;21.00;14.83;;;1.00;99.90;;;;;;5058978;28;20630;-65
2023/03/11 00:54:53;;;;;;;21.87;16.47;;;0.90;99.90;;;;;;5059260;28;20203;-64
2023/03/11 00:57:19;;;;;;;19.10;15.30;;;0.90;99.90;;;;;;5057353;28;20209;-66
2023/03/11 00:59:45;;;;;;;19.77;16.23;;;0.80;99.90;;;;;;5058890;28;20579;-68
2023/03/11 01:02:10;;;;;;;26.40;18.90;;;0.80;99.90;;;;;;5059528;28;20204;-65
2023/03/11 01:04:36;;;;;;;25.67;19.30;;;0.80;99.90;;;;;;5058368;28;20204;-66
2023/03/11 01:07:01;;;;;;;26.77;19.67;;;0.70;99.90;;;;;;5058399;28;20204;-65
2023/03/11 01:09:27;;;;;;;24.50;17.87;;;0.80;99.90;;;;;;5058589;28;20202;-64
2023/03/11 01:11:53;;;;;;;25.40;18.60;;;0.70;99.90;;;;;;5056143;28;21041;-65
2023/03/11 01:14:18;;;;;;;24.37;18.13;;;0.70;99.90;;;;;;5058074;28;20195;-63
2023/03/11 01:16:45;;;;;;;25.27;18.30;;;0.70;99.90;;;;;;5058655;28;20199;-64
2023/03/11 01:19:10;;;;;;;24.70;19.07;;;0.70;99.90;;;;;;5058842;28;20655;-63
2023/03/11 01:21:36;;;;;;;23.10;16.50;;;0.70;99.90;;;;;;5056594;28;20293;-64
2023/03/11 01:24:02;;;;;;;20.80;16.10;;;0.80;99.90;;;;;;5058418;28;20265;-63
2023/03/11 01:26:27;;;;;;;22.63;17.27;;;0.80;99.90;;;;;;5057685;28;20280;-62
2023/03/11 01:28:52;;;;;;;23.97;16.77;;;0.80;99.90;;;;;;5058673;28;20208;-63
2023/03/11 01:31:18;;;;;;;18.13;13.83;;;0.80;99.90;;;;;;5058271;28;20218;-62
2023/03/11 01:33:44;;;;;;;15.47;12.87;;;0.70;99.90;;;;;;5057104;28;20192;-63
2023/03/11 01:36:09;;;;;;;13.67;11.87;;;0.70;99.90;;;;;;5057671;28;20244;-64
2023/03/11 01:38:34;;;;;;;15.20;12.67;;;0.70;99.90;;;;;;5058484;28;20286;-63
2023/03/11 01:41:00;;;;;;;13.10;10.90;;;0.70;99.90;;;;;;5058294;28;20260;-63
2023/03/11 01:43:44;;;;;;;10.77;9.30;;;0.70;99.90;;;;;;5058241;28;20962;-65
2023/03/11 01:46:20;;;;;;;10.93;8.03;;;0.70;99.90;;;;;;5058349;28;20210;-64
2023/03/11 01:48:51;;;;;;;9.67;8.30;;;0.60;99.90;;;;;;5055979;28;20275;-63
2023/03/11 01:51:22;;;;;;;7.73;6.73;;;0.60;99.90;;;;;;5058774;28;20661;-63
2023/03/11 01:53:48;;;;;;;7.30;6.30;;;0.60;99.90;;;;;;5058792;28;20211;-62
2023/03/11 01:56:14;;;;;;;6.10;5.43;;;0.60;99.90;;;;;;5058603;28;20203;-65
2023/03/11 01:58:44;;;;;;;5.60;4.87;;;0.60;99.90;;;;;;5057963;28;20246;-63
2023/03/11 02:01:11;;;;;;;3.97;3.63;;;0.60;99.90;;;;;;5057861;28;20215;-62
2023/03/11 02:03:39;;;;;;;4.77;4.33;;;0.60;99.90;;;;;;5058377;28;20868;-63
2023/03/11 02:06:14;;;;;;;3.90;3.60;;;0.60;99.90;;;;;;5056148;28;20207;-63
2023/03/11 02:08:41;;;;;;;3.67;3.37;;;0.60;99.90;;;;;;5058479;28;20213;-62
2023/03/11 02:11:10;;;;;;;3.37;3.07;;;0.60;99.90;;;;;;5057993;28;20248;-63
2023/03/11 02:13:37;;;;;;;3.60;2.97;;;0.60;99.90;;;;;;5036487;28;20421;-63
2023/03/11 02:16:04;;;;;;;3.20;2.63;;;0.60;99.90;;;;;;5055793;28;20443;-63
2023/03/11 02:18:30;;;;;;;3.60;3.30;;;0.60;99.90;;;;;;5058365;28;20255;-62
2023/03/11 02:21:06;;;;;;;2.80;2.60;;;0.60;99.90;;;;;;5056611;28;20214;-62
2023/03/11 02:24:15;;;;;;;3.10;2.80;;;0.60;99.90;;;;;;5055205;28;20318;-63
2023/03/11 02:27:02;;;;;;;2.93;2.63;;;0.70;99.90;;;;;;5053507;28;20212;-62
2023/03/11 02:29:29;;;;;;;3.00;2.70;;;0.70;99.90;;;;;;5056790;28;20689;-63
2023/03/11 02:31:59;;;;;;;2.97;2.67;;;0.60;99.90;;;;;;5057460;28;20210;-63
2023/03/11 02:34:28;;;;;;;3.10;2.80;;;0.60;99.90;;;;;;5057503;28;20190;-63
2023/03/11 02:36:53;;;;;;;2.93;2.73;;;0.60;99.90;;;;;;5055878;28;20199;-65
2023/03/11 02:39:29;;;;;;;3.33;3.03;;;0.70;99.90;;;;;;5052921;28;20259;-63
2023/03/11 02:41:54;;;;;;;3.17;2.70;;;0.60;99.90;;;;;;5057678;28;20212;-64
2023/03/11 02:44:20;;;;;;;3.23;2.97;;;0.60;99.90;;;;;;5057436;28;20208;-63
2023/03/11 02:46:45;;;;;;;3.43;3.13;;;0.70;99.90;;;;;;5055238;28;20422;-64
2023/03/11 02:49:11;;;;;;;4.27;3.87;;;0.60;99.90;;;;;;5057828;28;20211;-63
2023/03/11 02:51:37;;;;;;;5.03;4.00;;;0.60;99.90;;;;;;5057599;28;20222;-64
2023/03/11 02:54:04;;;;;;;4.13;3.73;;;0.60;99.90;;;;;;5057707;28;20576;-63
2023/03/11 02:56:30;;;;;;;4.80;3.73;;;0.60;99.90;;;;;;5057889;28;20206;-64
2023/03/11 02:58:56;;;;;;;5.07;3.90;;;0.60;99.90;;;;;;5055555;28;20203;-63
2023/03/11 03:01:22;;;;;;;5.07;4.50;;;0.60;99.90;;;;;;5057143;28;20677;-63
2023/03/11 03:03:48;;;;;;;5.07;4.57;;;0.60;99.90;;;;;;5056729;28;20700;-63
2023/03/11 03:06:14;;;;;;;5.17;4.27;;;0.70;99.90;;;;;;5056722;28;20217;-63
2023/03/11 03:08:39;;;;;;;7.40;5.40;;;0.60;99.90;;;;;;5055120;28;20725;-63
2023/03/11 03:11:05;;;;;;;6.37;5.77;;;0.60;99.90;;;;;;5056291;28;20210;-64
2023/03/11 03:13:31;;;;;;;5.23;4.57;;;0.60;99.90;;;;;;5056725;28;20206;-64
2023/03/11 03:15:56;;;;;;;5.57;4.33;;;0.60;99.90;;;;;;5056259;28;20261;-64
2023/03/11 03:18:22;;;;;;;5.63;5.13;;;0.60;99.90;;;;;;5056125;28;20198;-63
2023/03/11 03:20:47;;;;;;;7.00;5.10;;;0.50;99.90;;;;;;5056043;28;20213;-63
2023/03/11 03:23:13;;;;;;;5.87;5.27;;;0.50;99.90;;;;;;5055841;28;20645;-63
2023/03/11 03:25:43;;;;;;;6.20;5.47;;;0.50;99.90;;;;;;5056017;28;20217;-62
2023/03/11 03:28:10;;;;;;;6.17;5.57;;;0.50;99.90;;;;;;5056444;28;20786;-62
2023/03/11 03:30:40;;;;;;;7.13;5.60;;;0.50;99.90;;;;;;5056221;28;20230;-62
2023/03/11 03:33:06;;;;;;;7.33;5.17;;;0.50;99.90;;;;;;5051920;28;20708;-63
2023/03/11 03:35:32;;;;;;;6.30;5.67;;;0.50;99.90;;;;;;5056770;28;20198;-64
2023/03/11 03:37:59;;;;;;;6.37;5.53;;;0.50;99.90;;;;;;5055505;28;20544;-62
2023/03/11 03:40:25;;;;;;;5.77;5.17;;;0.50;99.90;;;;;;5055889;28;20205;-62
2023/03/11 03:42:50;;;;;;;8.30;5.27;;;0.50;99.90;;;;;;5056224;28;20224;-62
2023/03/11 03:45:16;;;;;;;6.87;6.00;;;0.50;99.90;;;;;;5055872;28;20537;-62
2023/03/11 03:47:43;;;;;;;6.37;5.50;;;0.50;99.90;;;;;;5050851;28;20198;-61
2023/03/11 03:50:10;;;;;;;7.00;6.30;;;0.50;99.90;;;;;;5055883;28;20293;-62
2023/03/11 03:52:37;;;;;;;8.97;5.60;;;0.50;99.90;;;;;;5055606;28;20236;-61
2023/03/11 03:55:03;;;;;;;7.23;6.43;;;0.50;99.90;;;;;;5055301;28;20272;-61
2023/03/11 03:57:29;;;;;;;7.13;5.77;;;0.50;99.90;;;;;;5054987;28;20196;-62
2023/03/11 03:59:54;;;;;;;8.33;6.37;;;0.50;99.90;;;;;;5055334;28;20205;-61
2023/03/11 04:02:20;;;;;;;5.53;5.03;;;0.50;99.90;;;;;;5055830;28;20302;-62
2023/03/11 04:04:46;;;;;;;8.50;6.97;;;0.40;99.90;;;;;;5055786;28;20208;-62
2023/03/11 04:07:11;;;;;;;8.87;6.10;;;0.40;99.90;;;;;;5055864;28;20202;-62
2023/03/11 04:09:42;;;;;;;7.57;5.60;;;0.50;99.90;;;;;;5055884;28;20337;-62
2023/03/11 04:12:13;;;;;;;7.63;6.40;;;0.40;99.90;;;;;;5051628;28;20361;-62
2023/03/11 04:14:39;;;;;;;9.03;7.07;;;0.40;99.90;;;;;;5056058;28;21121;-62
2023/03/11 04:17:05;;;;;;;8.37;6.73;;;0.50;99.90;;;;;;5054707;28;20302;-62
2023/03/11 04:19:31;;;;;;;6.97;5.90;;;0.50;99.90;;;;;;5053671;28;20351;-63
2023/03/11 04:21:56;;;;;;;6.30;5.70;;;0.50;99.90;;;;;;5055867;28;20217;-65
2023/03/11 04:24:22;;;;;;;8.43;6.63;;;0.50;99.90;;;;;;5055256;28;20235;-62
2023/03/11 04:26:47;;;;;;;8.93;6.77;;;0.50;99.90;;;;;;5056672;28;20206;-61
2023/03/11 04:29:13;;;;;;;8.77;6.73;;;0.40;99.90;;;;;;5056431;28;20707;-62
2023/03/11 04:31:38;;;;;;;8.67;7.03;;;0.40;99.90;;;;;;5056256;28;20220;-62
2023/03/11 04:34:04;;;;;;;7.77;6.67;;;0.50;99.90;;;;;;5054483;28;20263;-62
2023/03/11 04:36:29;;;;;;;7.17;6.00;;;0.50;99.90;;;;;;5056296;28;20569;-62
2023/03/11 04:38:56;;;;;;;10.27;6.40;;;0.50;99.90;;;;;;5056168;28;20219;-62
2023/03/11 04:41:22;;;;;;;7.30;6.47;;;0.50;99.90;;;;;;5055849;28;20670;-61
2023/03/11 04:43:47;;;;;;;7.40;5.63;;;0.50;99.90;;;;;;5056217;28;20198;-60
2023/03/11 04:46:13;;;;;;;6.00;5.37;;;0.50;99.90;;;;;;5056500;28;20225;-61
2023/03/11 04:48:39;;;;;;;5.67;4.93;;;0.50;99.90;;;;;;5054584;28;20302;-61
2023/03/11 04:51:04;;;;;;;7.20;5.70;;;0.50;99.90;;;;;;5055955;28;20290;-62
2023/03/11 04:53:30;;;;;;;7.20;5.30;;;0.50;99.90;;;;;;5056035;28;20214;-61
2023/03/11 04:55:55;;;;;;;5.67;5.10;;;0.50;99.90;;;;;;5055978;28;20196;-61
2023/03/11 04:58:21;;;;;;;6.63;5.40;;;0.50;99.90;;;;;;5056146;28;20194;-62
2023/03/11 05:00:46;;;;;;;5.00;4.50;;;0.50;99.90;;;;;;5054143;28;20198;-62
2023/03/11 05:03:12;;;;;;;5.23;4.73;;;0.50;99.90;;;;;;5056150;28;20199;-62
2023/03/11 05:05:37;;;;;;;6.07;4.63;;;0.50;99.90;;;;;;5056086;28;20659;-63
2023/03/11 05:08:03;;;;;;;5.37;4.37;;;0.50;99.90;;;;;;5058701;28;20208;-63
2023/03/11 05:10:29;;;;;;;4.93;4.30;;;0.50;99.90;;;;;;5055002;28;20200;-63
2023/03/11 05:12:54;;;;;;;5.63;3.87;;;0.60;99.90;;;;;;5058059;28;20235;-63
2023/03/11 05:15:20;;;;;;;5.07;4.07;;;0.50;99.90;;;;;;5059902;28;20195;-62
2023/03/11 05:17:45;;;;;;;5.67;4.63;;;0.50;99.90;;;;;;5059357;28;20202;-63
2023/03/11 05:20:11;;;;;;;7.50;5.23;;;0.50;99.90;;;;;;5059094;28;20225;-63
2023/03/11 05:22:37;;;;;;;4.97;4.33;;;0.50;99.90;;;;;;5059280;28;20213;-63
2023/03/11 05:25:04;;;;;;;6.70;4.97;;;0.60;99.90;;;;;;5059163;28;20228;-63
2023/03/11 05:27:30;;;;;;;7.70;5.50;;;0.50;99.90;;;;;;5059411;28;20267;-63
2023/03/11 05:29:55;;;;;;;5.20;4.47;;;0.50;99.90;;;;;;5059338;28;20685;-63
2023/03/11 05:32:21;;;;;;;5.77;5.27;;;0.50;99.90;;;;;;5059202;28;20211;-63
2023/03/11 05:34:46;;;;;;;5.80;5.17;;;0.50;99.90;;;;;;5059156;28;20228;-64
2023/03/11 05:37:12;;;;;;;7.93;5.93;;;0.50;99.90;;;;;;5059600;28;20838;-63
2023/03/11 05:39:38;;;;;;;7.10;5.63;;;0.50;99.90;;;;;;5059134;28;20202;-64
2023/03/11 05:42:04;;;;;;;8.27;6.53;;;0.50;99.90;;;;;;5058439;28;20207;-64
2023/03/11 05:44:31;;;;;;;8.17;6.53;;;0.60;99.90;;;;;;5058957;28;20586;-64
2023/03/11 05:46:56;;;;;;;7.70;5.80;;;0.50;99.90;;;;;;5058890;28;20206;-64
2023/03/11 05:49:22;;;;;;;7.83;5.53;;;0.50;99.90;;;;;;5059043;28;20202;-64
2023/03/11 05:51:48;;;;;;;7.43;6.67;;;0.50;99.90;;;;;;5058810;28;20217;-65
2023/03/11 05:54:14;;;;;;;8.17;6.37;;;0.60;99.90;;;;;;5057551;28;20212;-65
2023/03/11 05:56:48;;;;;;;8.73;6.63;;;0.50;99.90;;;;;;5058959;28;20203;-65
2023/03/11 05:59:14;;;;;;;8.83;6.17;;;0.50;99.90;;;;;;5058860;28;20431;-64
2023/03/11 06:01:41;;;;;;;8.47;6.73;;;0.50;99.90;;;;;;5058367;28;20884;-66
2023/03/11 06:04:07;;;;;;;8.63;6.73;;;0.50;99.90;;;;;;5056304;28;20257;-67
2023/03/11 06:06:32;;;;;;;10.50;7.33;;;0.50;99.90;;;;;;5058804;28;20225;-64
2023/03/11 06:08:58;;;;;;;9.60;6.43;;;0.50;99.90;;;;;;5057898;28;20602;-64
2023/03/11 06:11:24;;;;;;;14.00;8.00;;;0.50;99.90;;;;;;5059076;28;20202;-64
2023/03/11 06:13:54;;;;;;;9.90;7.43;;;0.50;99.90;;;;;;5058833;28;20202;-65
2023/03/11 06:16:21;;;;;;;8.60;7.50;;;0.50;99.90;;;;;;5058048;28;20216;-65
2023/03/11 06:18:46;;;;;;;13.30;9.40;;;0.50;99.90;;;;;;5056971;28;20657;-64
2023/03/11 06:21:23;;;;;;;10.17;8.53;;;0.60;99.90;;;;;;5058019;28;20206;-63
2023/03/11 06:23:49;;;;;;;12.67;8.03;;;0.50;99.90;;;;;;5001371;28;20223;-64
2023/03/11 06:26:19;;;;;;;16.53;9.23;;;0.60;99.90;;;;;;5054404;28;20199;-64
2023/03/11 06:28:45;;;;;;;16.83;8.63;;;0.60;99.90;;;;;;5057957;28;20790;-64
2023/03/11 06:31:18;;;;;;;11.13;9.27;;;0.60;99.90;;;;;;5057956;28;20234;-63
2023/03/11 06:33:44;;;;;;;12.13;9.87;;;0.60;99.90;;;;;;5056113;28;20235;-64
2023/03/11 06:36:12;;;;;;;10.63;9.00;;;0.60;99.90;;;;;;5057759;28;20233;-63
2023/03/11 06:38:37;;;;;;;10.83;8.90;;;0.70;99.90;;;;;;5057565;28;20208;-63
2023/03/11 06:41:04;;;;;;;11.57;8.87;;;0.70;99.90;;;;;;5057840;28;20510;-63
2023/03/11 06:43:30;;;;;;;13.53;9.60;;;0.60;99.90;;;;;;5057687;28;20788;-64
2023/03/11 06:45:57;;;;;;;15.30;11.13;;;0.70;99.90;;;;;;5055356;28;20196;-63
2023/03/11 06:48:23;;;;;;;17.37;11.40;;;0.70;99.90;;;;;;5057832;28;20234;-62
2023/03/11 06:50:55;;;;;;;14.53;10.50;;;0.70;99.90;;;;;;5056867;28;20709;-63
2023/03/11 06:53:21;;;;;;;12.63;9.90;;;0.80;99.90;;;;;;5056608;28;20227;-63
2023/03/11 06:55:58;;;;;;;14.77;9.87;;;0.90;99.90;;;;;;5054532;28;20207;-63
2023/03/11 06:58:23;;;;;;;15.20;9.37;;;0.90;99.90;;;;;;5057168;28;20286;-65
2023/03/11 07:00:49;;;;;;;11.93;8.80;;;0.90;99.90;;;;;;5057411;28;20307;-63
2023/03/11 07:03:14;;;;;;;11.27;8.37;;;0.90;99.90;;;;;;5055792;28;20194;-63
2023/03/11 07:05:40;;;;;;;11.10;9.03;;;0.90;99.90;;;;;;5052684;28;20209;-63
2023/03/11 07:08:05;;;;;;;11.47;9.83;;;0.90;99.90;;;;;;5056998;28;20252;-64
2023/03/11 07:10:31;;;;;;;12.20;9.73;;;0.90;99.90;;;;;;5057031;28;20218;-64
2023/03/11 07:12:56;;;;;;;9.63;7.97;;;1.00;99.90;;;;;;5056880;28;20616;-64
2023/03/11 07:15:22;;;;;;;12.90;8.50;;;1.00;99.90;;;;;;5056920;28;20184;-64
2023/03/11 07:17:47;;;;;;;10.77;8.93;;;1.10;99.90;;;;;;5054784;28;20190;-63
2023/03/11 07:20:13;;;;;;;10.20;7.43;;;1.10;99.90;;;;;;5056751;28;20199;-64
2023/03/11 07:22:38;;;;;;;8.87;7.80;;;1.10;99.90;;;;;;5056823;28;20229;-63
2023/03/11 07:25:04;;;;;;;10.47;7.10;;;1.10;99.90;;;;;;5056108;28;20330;-62
2023/03/11 07:27:29;;;;;;;10.93;7.03;;;1.10;99.90;;;;;;5056564;28;20203;-63
2023/03/11 07:29:55;;;;;;;7.57;6.83;;;1.10;99.90;;;;;;5056807;28;20206;-62
2023/03/11 07:32:20;;;;;;;11.03;6.53;;;1.20;99.90;;;;;;5054621;28;20636;-63
2023/03/11 07:34:46;;;;;;;7.83;6.97;;;1.20;99.90;;;;;;5056776;28;20246;-63
2023/03/11 07:37:11;;;;;;;8.67;6.90;;;1.10;99.90;;;;;;5056461;28;20684;-63
2023/03/11 07:39:38;;;;;;;8.20;7.40;;;1.10;99.90;;;;;;5056444;28;20196;-63
2023/03/11 07:42:04;;;;;;;9.83;6.23;;;1.00;99.90;;;;;;5056514;28;20221;-63
2023/03/11 07:44:29;;;;;;;9.93;7.07;;;1.10;99.90;;;;;;5055126;28;20221;-63
2023/03/11 07:46:55;;;;;;;9.00;6.97;;;1.10;99.90;;;;;;5051500;28;20279;-63
2023/03/11 07:49:20;;;;;;;9.40;7.27;;;1.30;99.90;;;;;;5056466;28;20222;-64
2023/03/11 07:51:46;;;;;;;9.10;6.37;;;1.30;99.90;;;;;;5056277;28;20485;-63
2023/03/11 07:54:12;;;;;;;7.43;5.50;;;1.30;99.90;;;;;;5056387;28;20196;-63
2023/03/11 07:56:37;;;;;;;6.97;6.03;;;1.40;99.90;;;;;;5056461;28;20214;-63
2023/03/11 07:59:03;;;;;;;7.87;5.87;;;1.50;99.90;;;;;;5054241;28;20198;-63
2023/03/11 08:01:35;;;;;;;7.37;6.67;;;1.50;99.90;;;;;;5056535;28;20865;-64
2023/03/11 08:04:02;;;;;;;8.63;6.10;;;1.60;99.90;;;;;;5056509;28;20211;-64
2023/03/11 08:06:30;;;;;;;7.80;6.23;;;1.70;99.90;;;;;;5056630;28;20219;-64
2023/03/11 08:08:57;;;;;;;7.67;5.80;;;1.80;99.90;;;;;;5051804;28;20243;-65
2023/03/11 08:11:24;;;;;;;8.90;6.60;;;1.70;99.90;;;;;;5056362;28;20219;-64
2023/03/11 08:13:49;;;;;;;12.43;6.40;;;1.80;99.90;;;;;;5056387;28;20810;-64
2023/03/11 08:16:18;;;;;;;7.27;5.53;;;1.90;99.90;;;;;;5055911;28;20197;-65
2023/03/11 08:18:44;;;;;;;9.00;6.07;;;1.80;99.90;;;;;;5055998;28;20209;-64
2023/03/11 08:21:16;;;;;;;7.67;5.10;;;1.80;99.90;;;;;;5055940;28;20207;-65
2023/03/11 08:23:42;;;;;;;5.40;4.93;;;1.80;99.90;;;;;;5055839;28;20254;-64
2023/03/11 08:26:11;;;;;;;5.80;5.23;;;1.80;99.90;;;;;;5056229;28;20630;-64
2023/03/11 08:28:37;;;;;;;7.27;5.87;;;2.10;99.90;;;;;;5051291;28;20615;-64
2023/03/11 08:31:14;;;;;;;7.43;5.37;;;2.10;99.90;;;;;;5056137;28;20207;-71
2023/03/11 08:33:40;;;;;;;9.00;4.80;;;2.10;99.90;;;;;;5053833;28;20195;-66
2023/03/11 08:36:06;;;;;;;5.20;4.80;;;2.10;99.90;;;;;;5055760;28;20242;-64
2023/03/11 08:38:32;;;;;;;7.33;5.53;;;2.10;99.90;;;;;;5056220;28;20232;-64
2023/03/11 08:40:57;;;;;;;11.53;5.87;;;2.20;99.90;;;;;;5055052;28;20283;-64
2023/03/11 08:43:22;;;;;;;10.13;5.60;;;2.30;99.90;;;;;;5038173;28;20200;-64
2023/03/11 08:45:48;;;;;;;6.20;5.60;;;2.40;99.90;;;;;;5059964;28;20295;-65
2023/03/11 08:48:14;;;;;;;7.63;5.23;;;2.30;99.90;;;;;;5058178;28;20210;-64
2023/03/11 08:50:41;;;;;;;6.70;4.60;;;2.30;99.90;;;;;;5059698;28;20196;-67
2023/03/11 08:53:07;;;;;;;7.80;4.90;;;2.20;99.90;;;;;;5058907;28;20707;-66
2023/03/11 08:55:33;;;;;;;5.93;5.20;;;2.30;99.90;;;;;;5054496;28;20202;-67
2023/03/11 08:57:58;;;;;;;6.40;4.47;;;2.30;99.90;;;;;;5053942;28;20194;-66
2023/03/11 09:00:27;;;;;;;5.40;4.87;;;2.30;99.90;;;;;;5055448;28;20580;-70
2023/03/11 09:02:54;;;;;;;7.30;5.47;;;2.30;99.90;;;;;;5055643;28;20264;-65
2023/03/11 09:05:19;;;;;;;5.77;4.63;;;2.40;99.90;;;;;;5059770;28;20227;-64
2023/03/11 09:07:45;;;;;;;5.07;4.23;;;2.30;99.90;;;;;;5055126;28;20239;-69
2023/03/11 09:10:13;;;;;;;7.03;5.00;;;2.30;99.90;;;;;;5055828;28;20545;-69
2023/03/11 09:12:39;;;;;;;6.33;4.57;;;2.30;99.90;;;;;;5054174;28;20752;-69
2023/03/11 09:15:05;;;;;;;7.03;5.23;;;2.40;99.90;;;;;;5056356;28;20190;-70
2023/03/11 09:17:31;;;;;;;7.17;4.63;;;2.50;99.90;;;;;;5057287;28;20204;-69
2023/03/11 09:19:56;;;;;;;9.13;5.50;;;2.40;99.90;;;;;;5040839;28;20199;-69
2023/03/11 09:22:22;;;;;;;4.80;4.30;;;2.30;99.90;;;;;;5059064;28;20211;-74
2023/03/11 09:24:47;;;;;;;6.33;4.83;;;2.30;99.90;;;;;;5059802;28;20232;-67
2023/03/11 09:27:14;;;;;;;6.57;4.97;;;2.30;99.90;;;;;;5054085;28;20235;-68
2023/03/11 09:29:40;;;;;;;4.23;3.83;;;2.40;99.90;;;;;;5054682;28;20206;-66
2023/03/11 09:32:05;;;;;;;5.80;5.30;;;2.50;99.90;;;;;;5056301;28;20281;-67
2023/03/11 09:34:31;;;;;;;7.60;5.93;;;2.40;99.90;;;;;;5058044;28;20212;-68
2023/03/11 09:36:56;;;;;;;5.97;5.47;;;2.30;99.90;;;;;;5057459;28;20255;-68
2023/03/11 09:39:22;;;;;;;6.57;5.03;;;2.40;99.90;;;;;;5056889;28;20207;-68
2023/03/11 09:41:56;;;;;;;6.03;5.43;;;2.30;99.90;;;;;;5058816;28;20197;-68
2023/03/11 09:44:40;;;;;;;7.07;5.70;;;2.30;99.90;;;;;;5056419;28;20208;-67
2023/03/11 09:47:29;;;;;;;6.80;6.10;;;2.30;99.90;;;;;;5056795;28;20204;-67
2023/03/11 09:50:20;;;;;;;8.67;5.37;;;2.10;99.90;;;;;;5058188;28;20234;-67
2023/03/11 09:53:16;;;;;;;7.43;5.70;;;2.10;99.90;;;;;;5055005;28;20656;-68
2023/03/11 09:55:51;;;;;;;7.77;6.43;;;2.10;99.90;;;;;;5057773;28;20261;-68
2023/03/11 09:58:35;;;;;;;8.00;7.07;;;2.20;99.90;;;;;;5057804;28;20679;-66
2023/03/11 10:01:02;;;;;;;6.07;5.47;;;2.20;99.90;;;;;;5057042;28;20224;-68
2023/03/11 10:03:34;;;;;;;6.87;6.17;;;2.20;99.90;;;;;;5055422;28;20253;-67
2023/03/11 10:06:14;;;;;;;6.60;6.00;;;2.20;99.90;;;;;;5057699;28;20236;-67
2023/03/11 10:08:54;;;;;;;7.17;6.37;;;2.20;99.90;;;;;;5057142;28;20208;-68
2023/03/11 10:12:02;;;;;;;9.33;6.10;;;2.20;99.90;;;;;;5055467;28;20195;-69
2023/03/11 10:14:46;;;;;;;6.63;5.97;;;2.30;99.90;;;;;;4992970;28;20201;-67
2023/03/11 10:17:18;;;;;;;7.53;6.83;;;2.50;99.90;;;;;;5054284;28;20209;-67
2023/03/11 10:20:07;;;;;;;6.83;6.00;;;2.70;99.90;;;;;;5058418;28;20208;-68
2023/03/11 10:22:59;;;;;;;7.07;6.47;;;2.70;99.90;;;;;;5054285;28;20243;-68
2023/03/11 10:25:30;;;;;;;5.47;4.97;;;3.00;99.90;;;;;;5061412;28;20218;-69
2023/03/11 10:28:09;;;;;;;9.10;6.87;;;3.10;99.90;;;;;;5058258;28;20217;-67
2023/03/11 10:30:49;;;;;;;7.07;6.37;;;3.30;99.90;;;;;;5058258;28;20706;-67
2023/03/11 10:33:30;;;;;;;6.77;6.17;;;3.30;99.90;;;;;;5057130;28;20768;-65
2023/03/11 10:35:59;;;;;;;5.70;4.87;;;3.20;99.90;;;;;;5038306;28;20209;-71
2023/03/11 10:38:36;;;;;;;7.43;6.67;;;3.00;99.90;;;;;;5058260;28;20721;-70
2023/03/11 10:41:06;;;;;;;7.10;6.40;;;3.00;99.90;;;;;;5052921;28;20230;-73
2023/03/11 10:43:39;;;;;;;7.60;6.07;;;2.80;99.90;;;;;;5057928;28;20634;-72
2023/03/11 10:46:15;;;;;;;7.07;6.37;;;2.70;99.90;;;;;;5056524;28;20198;-71
2023/03/11 10:48:40;;;;;;;7.17;6.23;;;2.90;99.90;;;;;;5054341;28;20197;-69
2023/03/11 10:51:32;;;;;;;9.60;7.27;;;3.10;99.90;;;;;;5057800;28;20564;-68
2023/03/11 10:54:00;;;;;;;7.03;6.33;;;3.00;99.90;;;;;;5054538;28;20210;-68
2023/03/11 10:56:37;;;;;;;9.83;8.20;;;3.00;99.90;;;;;;5057537;28;20207;-70
2023/03/11 10:59:17;;;;;;;9.07;8.17;;;3.00;99.90;;;;;;5053328;28;20837;-70
2023/03/11 11:01:57;;;;;;;8.90;7.67;;;3.00;99.90;;;;;;5056791;28;20607;-69
2023/03/11 11:04:28;;;;;;;8.50;7.70;;;3.20;99.90;;;;;;5051422;28;20226;-69
2023/03/11 11:06:54;;;;;;;9.67;7.47;;;3.40;99.90;;;;;;5057071;28;20277;-70
2023/03/11 11:09:23;;;;;;;9.27;6.90;;;3.20;99.90;;;;;;5055491;28;20287;-70
2023/03/11 11:12:03;;;;;;;8.90;7.87;;;3.00;99.90;;;;;;5054516;28;20286;-69
2023/03/11 11:14:51;;;;;;;8.43;7.50;;;3.00;99.90;;;;;;5054600;28;20197;-68
2023/03/11 11:17:22;;;;;;;11.63;7.97;;;3.10;99.90;;;;;;5055057;28;20192;-69
2023/03/11 11:19:50;;;;;;;8.60;7.80;;;3.20;99.90;;;;;;5054042;28;20254;-70
2023/03/11 11:22:17;;;;;;;9.17;7.43;;;3.20;99.90;;;;;;5056351;28;20214;-72
2023/03/11 11:24:45;;;;;;;8.80;7.87;;;3.30;99.90;;;;;;5051263;28;20227;-69
2023/03/11 11:27:17;;;;;;;8.13;6.77;;;3.40;99.90;;;;;;5050229;28;20197;-70
2023/03/11 11:29:43;;;;;;;8.77;7.33;;;3.20;99.90;;;;;;5055263;28;20228;-69
2023/03/11 11:32:23;;;;;;;8.57;7.33;;;3.40;99.90;;;;;;5052957;28;20205;-69
2023/03/11 11:35:05;;;;;;;9.33;8.17;;;3.40;99.90;;;;;;5050427;28;20200;-70
2023/03/11 11:37:34;;;;;;;7.70;7.00;;;3.30;99.90;;;;;;5050968;28;20203;-70
2023/03/11 11:40:14;;;;;;;10.80;8.33;;;3.20;99.90;;;;;;5051950;28;20205;-71
2023/03/11 11:42:51;;;;;;;10.20;9.20;;;3.40;99.90;;;;;;5054573;28;20208;-72
2023/03/11 11:45:29;;;;;;;8.60;7.80;;;3.90;99.90;;;;;;5055761;28;20201;-70
2023/03/11 11:47:58;;;;;;;9.60;8.37;;;3.60;99.90;;;;;;5056339;28;20197;-70
2023/03/11 11:50:47;;;;;;;9.67;7.73;;;3.50;99.90;;;;;;5056245;28;20620;-70
2023/03/11 11:53:31;;;;;;;10.30;7.70;;;3.40;99.90;;;;;;5054587;28;20214;-71
2023/03/11 11:55:57;;;;;;;8.93;7.77;;;3.60;99.90;;;;;;5053508;28;20541;-71
2023/03/11 11:58:23;;;;;;;8.50;7.70;;;4.10;99.90;;;;;;5056317;28;20190;-69
2023/03/11 12:01:14;;;;;;;7.93;7.23;;;4.70;99.90;;;;;;5054755;28;20194;-70
2023/03/11 12:03:56;;;;;;;9.00;8.07;;;4.80;99.90;;;;;;5036503;28;20204;-70
2023/03/11 12:06:31;;;;;;;7.30;6.60;;;4.70;99.90;;;;;;5055817;28;21127;-71
2023/03/11 12:09:42;;;;;;;8.27;7.47;;;5.00;99.90;;;;;;5055360;28;20197;-70
2023/03/11 12:12:36;;;;;;;7.90;7.10;;;5.10;99.90;;;;;;5055788;28;20210;-70
2023/03/11 12:15:25;;;;;;;7.50;6.63;;;4.70;99.90;;;;;;5054048;28;20685;-70
2023/03/11 12:17:58;;;;;;;8.80;6.87;;;4.50;99.90;;;;;;5053612;28;20197;-70
2023/03/11 12:20:41;;;;;;;9.33;8.23;;;4.50;99.90;;;;;;5053435;28;21181;-70
2023/03/11 12:23:38;;;;;;;8.17;7.07;;;4.40;99.90;;;;;;5055507;28;20291;-68
2023/03/11 12:26:20;;;;;;;7.87;7.07;;;4.20;99.90;;;;;;5053069;28;20222;-70
2023/03/11 12:29:03;;;;;;;8.67;7.77;;;3.70;99.90;;;;;;5055301;28;20206;-70
2023/03/11 12:31:37;;;;;;;7.13;6.30;;;3.50;99.90;;;;;;5054614;28;20616;-70
2023/03/11 12:34:06;;;;;;;6.40;5.80;;;3.40;99.90;;;;;;5053076;28;20520;-69
2023/03/11 12:36:37;;;;;;;7.27;6.40;;;3.40;99.90;;;;;;5056033;28;20233;-70
2023/03/11 12:39:06;;;;;;;6.67;6.07;;;3.30;99.90;;;;;;5056075;28;20200;-70
2023/03/11 12:41:38;;;;;;;8.30;7.00;;;3.50;99.90;;;;;;5054025;28;20413;-69
2023/03/11 12:44:22;;;;;;;7.47;6.77;;;3.60;99.90;;;;;;5056147;28;20765;-69
2023/03/11 12:46:56;;;;;;;8.90;6.63;;;3.70;99.90;;;;;;5053200;28;20205;-69
2023/03/11 12:49:24;;;;;;;6.93;6.23;;;3.60;99.90;;;;;;5056120;28;20227;-70
2023/03/11 12:52:12;;;;;;;6.63;6.03;;;3.40;99.90;;;;;;5055874;28;20652;-70
2023/03/11 12:54:43;;;;;;;8.03;6.73;;;3.10;99.90;;;;;;5047378;28;20202;-71
2023/03/11 12:57:34;;;;;;;7.27;6.60;;;3.20;99.90;;;;;;5053154;28;20685;-70
2023/03/11 13:00:37;;;;;;;8.67;6.27;;;3.10;99.90;;;;;;5053984;28;20752;-70
2023/03/11 13:03:24;;;;;;;7.80;6.37;;;3.10;99.90;;;;;;5052738;28;20665;-70
2023/03/11 13:05:59;;;;;;;7.87;6.80;;;3.70;99.90;;;;;;5051406;28;20258;-70